Time;durP1;ratioP1;P1;durP2;ratioP2;P2;SDS_P1;SDS_P2;PMS_P1;PMS_P2;Temp;Humidity;BMP_temperature;BMP_pressure;BME280_temperature;BME280_humidity;BME280_pressure;Samples;Min_cycle;Max_cycle;Signal;HPM_P1;HPM_P2
2023/03/29 00:00:58;;;;;;;5.37;2.63;;;4.30;99.90;;;;;;5052587;28;20636;-81
2023/03/29 00:03:27;;;;;;;3.67;2.70;;;4.30;99.90;;;;;;5051709;28;20190;-79
2023/03/29 00:06:01;;;;;;;4.67;3.10;;;4.20;99.90;;;;;;5051315;28;20173;-79
2023/03/29 00:08:28;;;;;;;4.67;2.60;;;4.20;99.90;;;;;;5053062;28;20176;-79
2023/03/29 00:10:55;;;;;;;4.67;2.40;;;4.20;99.90;;;;;;5052032;28;20173;-80
2023/03/29 00:13:21;;;;;;;3.27;2.40;;;4.20;99.90;;;;;;5051478;28;20251;-79
2023/03/29 00:15:46;;;;;;;2.93;2.60;;;4.20;99.90;;;;;;5051352;28;20182;-79
2023/03/29 00:18:12;;;;;;;5.40;2.50;;;4.20;99.90;;;;;;5051232;28;20208;-79
2023/03/29 00:20:38;;;;;;;4.03;2.90;;;4.20;99.90;;;;;;5051128;28;20268;-79
2023/03/29 00:23:03;;;;;;;4.50;2.63;;;4.20;99.90;;;;;;5052756;28;20177;-79
2023/03/29 00:25:29;;;;;;;5.47;2.93;;;4.20;99.90;;;;;;5052593;28;20177;-79
2023/03/29 00:27:54;;;;;;;3.37;2.40;;;4.20;99.90;;;;;;5052628;28;20222;-79
2023/03/29 00:30:20;;;;;;;3.63;2.73;;;4.20;99.90;;;;;;5051839;28;20639;-79
2023/03/29 00:32:45;;;;;;;5.63;2.33;;;4.20;99.90;;;;;;5051061;28;20201;-79
2023/03/29 00:35:11;;;;;;;5.57;2.80;;;4.20;99.90;;;;;;5051175;28;20196;-79
2023/03/29 00:37:37;;;;;;;3.50;2.63;;;4.20;99.90;;;;;;5052585;28;20554;-79
2023/03/29 00:40:09;;;;;;;4.57;2.63;;;4.10;99.90;;;;;;5051916;28;20197;-78
2023/03/29 00:42:35;;;;;;;5.43;2.53;;;4.10;99.90;;;;;;5052046;28;20176;-79
2023/03/29 00:45:08;;;;;;;4.30;3.00;;;4.10;99.90;;;;;;5052016;28;20185;-78
2023/03/29 00:47:41;;;;;;;5.57;3.00;;;4.00;99.90;;;;;;5051035;28;20188;-79
2023/03/29 00:50:58;;;;;;;3.83;2.63;;;4.00;99.90;;;;;;5050649;28;20675;-79
2023/03/29 00:53:31;;;;;;;3.43;2.80;;;4.00;99.90;;;;;;5050529;28;20204;-79
2023/03/29 00:56:10;;;;;;;4.97;2.70;;;4.00;99.90;;;;;;5052168;28;20659;-80
2023/03/29 00:58:46;;;;;;;3.53;2.80;;;4.00;99.90;;;;;;5035807;28;20208;-79
2023/03/29 01:01:18;;;;;;;3.80;2.97;;;3.90;99.90;;;;;;5050323;28;20180;-79
2023/03/29 01:03:58;;;;;;;7.03;2.80;;;3.90;99.90;;;;;;5051027;28;20208;-79
2023/03/29 01:06:28;;;;;;;4.07;2.60;;;3.90;99.90;;;;;;5052396;28;20741;-79
2023/03/29 01:08:57;;;;;;;5.90;3.30;;;3.90;99.90;;;;;;5050753;28;20188;-79
2023/03/29 01:11:28;;;;;;;4.73;2.50;;;3.90;99.90;;;;;;5050249;28;20181;-80
2023/03/29 01:14:22;;;;;;;4.30;2.83;;;3.90;99.90;;;;;;5051206;28;20220;-79
2023/03/29 01:16:47;;;;;;;5.43;3.00;;;4.00;99.90;;;;;;5055559;28;20207;-79
2023/03/29 01:19:17;;;;;;;5.07;2.80;;;4.00;99.90;;;;;;5055070;28;20292;-79
2023/03/29 01:21:50;;;;;;;3.43;2.37;;;4.00;99.90;;;;;;5055711;28;20257;-79
2023/03/29 01:24:25;;;;;;;5.67;2.83;;;4.00;99.90;;;;;;5054665;28;20201;-79
2023/03/29 01:27:12;;;;;;;3.67;2.47;;;4.00;99.90;;;;;;5056113;28;20180;-79
2023/03/29 01:29:54;;;;;;;5.67;2.70;;;4.10;99.90;;;;;;5054428;28;20184;-79
2023/03/29 01:32:34;;;;;;;4.30;2.40;;;4.10;99.90;;;;;;5055937;28;20192;-78
2023/03/29 01:35:09;;;;;;;4.10;2.33;;;4.00;99.90;;;;;;5055920;28;20221;-79
2023/03/29 01:38:08;;;;;;;3.87;2.30;;;4.00;99.90;;;;;;5054693;28;20696;-79
2023/03/29 01:40:34;;;;;;;4.63;2.30;;;4.00;99.90;;;;;;5055548;28;20655;-79
2023/03/29 01:43:11;;;;;;;3.90;2.67;;;4.00;99.90;;;;;;5054286;28;20181;-79
2023/03/29 01:45:50;;;;;;;4.20;2.23;;;4.00;99.90;;;;;;5055685;28;20169;-79
2023/03/29 01:48:32;;;;;;;5.63;2.80;;;4.00;99.90;;;;;;5054632;28;20181;-80
2023/03/29 01:51:07;;;;;;;5.20;2.40;;;4.00;99.90;;;;;;5055503;28;20276;-79
2023/03/29 01:53:42;;;;;;;3.07;2.60;;;3.90;99.90;;;;;;5054140;28;20287;-80
2023/03/29 01:56:13;;;;;;;4.33;2.40;;;3.90;99.90;;;;;;5053946;28;20193;-79
2023/03/29 01:58:48;;;;;;;4.17;2.20;;;4.00;99.90;;;;;;5055185;28;20231;-78
2023/03/29 02:01:18;;;;;;;5.40;2.57;;;4.00;99.90;;;;;;5054694;28;20170;-79
2023/03/29 02:03:48;;;;;;;2.30;2.10;;;4.00;99.90;;;;;;5054166;28;20275;-80
2023/03/29 02:06:19;;;;;;;3.03;2.50;;;4.00;99.90;;;;;;5053842;28;20170;-79
2023/03/29 02:08:46;;;;;;;3.57;2.53;;;4.10;99.90;;;;;;5054179;28;20173;-79
2023/03/29 02:11:12;;;;;;;2.73;2.00;;;4.00;99.90;;;;;;5053666;28;20710;-78
2023/03/29 02:13:37;;;;;;;3.00;2.53;;;4.00;99.90;;;;;;5055208;28;20200;-79
2023/03/29 02:16:11;;;;;;;3.80;2.27;;;4.10;99.90;;;;;;5053582;28;20177;-79
2023/03/29 02:18:40;;;;;;;3.53;2.40;;;4.00;99.90;;;;;;5053549;28;20194;-79
2023/03/29 02:21:07;;;;;;;2.80;2.20;;;4.00;99.90;;;;;;5054183;28;20242;-79
2023/03/29 02:23:38;;;;;;;2.90;2.30;;;4.00;99.90;;;;;;5053433;28;20248;-79
2023/03/29 02:26:05;;;;;;;2.60;1.93;;;4.00;99.90;;;;;;5054983;28;20255;-79
2023/03/29 02:28:32;;;;;;;3.80;2.40;;;4.10;99.90;;;;;;5052736;28;20170;-79
2023/03/29 02:31:20;;;;;;;4.80;2.20;;;4.00;99.90;;;;;;5053959;28;20173;-79
2023/03/29 02:34:05;;;;;;;4.37;2.20;;;4.10;99.90;;;;;;5054380;28;20280;-81
2023/03/29 02:36:51;;;;;;;3.70;2.30;;;4.10;99.90;;;;;;5053160;28;20174;-79
2023/03/29 02:39:18;;;;;;;5.93;2.40;;;4.10;99.90;;;;;;5045433;28;20307;-79
2023/03/29 02:41:48;;;;;;;4.50;2.10;;;4.10;99.90;;;;;;5053635;28;20173;-80
2023/03/29 02:44:17;;;;;;;3.17;2.23;;;4.10;99.90;;;;;;5053113;28;20231;-79
2023/03/29 02:46:44;;;;;;;4.47;2.10;;;4.10;99.90;;;;;;5054377;28;20544;-79
2023/03/29 02:49:10;;;;;;;3.73;2.20;;;4.10;99.90;;;;;;5054180;28;20605;-80
2023/03/29 02:51:36;;;;;;;4.17;2.57;;;4.10;99.90;;;;;;5052563;28;20654;-79
2023/03/29 02:54:08;;;;;;;2.33;2.13;;;4.20;99.90;;;;;;5053758;28;20212;-80
2023/03/29 02:56:45;;;;;;;4.07;2.10;;;4.20;99.90;;;;;;5052740;28;20201;-79
2023/03/29 02:59:11;;;;;;;2.67;2.20;;;4.20;99.90;;;;;;5052575;28;20204;-78
2023/03/29 03:01:38;;;;;;;3.07;2.27;;;4.20;99.90;;;;;;5053194;28;20173;-78
2023/03/29 03:04:04;;;;;;;3.03;2.10;;;4.20;99.90;;;;;;5053604;28;20190;-78
2023/03/29 03:06:29;;;;;;;2.30;1.93;;;4.30;99.90;;;;;;5053546;28;20170;-78
2023/03/29 03:08:55;;;;;;;2.87;2.17;;;4.30;99.90;;;;;;5052538;28;20212;-78
2023/03/29 03:11:22;;;;;;;3.13;2.00;;;4.30;99.90;;;;;;5052058;28;20177;-79
2023/03/29 03:13:48;;;;;;;2.37;2.17;;;4.30;99.90;;;;;;5052284;28;20695;-78
2023/03/29 03:16:13;;;;;;;2.53;2.20;;;4.40;99.90;;;;;;5053632;28;20177;-78
2023/03/29 03:18:39;;;;;;;5.73;2.30;;;4.40;99.90;;;;;;5053596;28;20200;-80
2023/03/29 03:21:05;;;;;;;2.33;1.90;;;4.50;99.90;;;;;;5051717;28;20182;-78
2023/03/29 03:23:30;;;;;;;3.20;2.00;;;4.50;99.90;;;;;;5051752;28;20196;-78
2023/03/29 03:25:57;;;;;;;3.43;2.10;;;4.50;99.90;;;;;;5051983;28;20549;-78
2023/03/29 03:28:23;;;;;;;2.83;2.20;;;4.50;99.90;;;;;;5053079;28;20181;-78
2023/03/29 03:30:49;;;;;;;3.97;2.23;;;4.50;99.90;;;;;;5051489;28;20218;-78
2023/03/29 03:33:15;;;;;;;2.33;2.13;;;4.50;99.90;;;;;;5053144;28;20180;-78
2023/03/29 03:35:41;;;;;;;2.50;1.97;;;4.50;99.90;;;;;;5053061;28;20181;-78
2023/03/29 03:38:07;;;;;;;2.87;2.10;;;4.50;99.90;;;;;;5049922;28;20181;-78
2023/03/29 03:40:33;;;;;;;3.43;2.07;;;4.50;99.90;;;;;;5046625;28;20264;-78
2023/03/29 03:42:59;;;;;;;2.77;1.90;;;4.50;99.90;;;;;;5052871;28;20169;-78
2023/03/29 03:45:25;;;;;;;4.57;2.63;;;4.50;99.90;;;;;;5052718;28;20222;-78
2023/03/29 03:47:50;;;;;;;6.53;3.30;;;4.40;99.90;;;;;;5051475;28;20518;-79
2023/03/29 03:50:17;;;;;;;5.77;3.30;;;4.40;99.90;;;;;;5051075;28;20189;-78
2023/03/29 03:52:43;;;;;;;2.80;2.17;;;4.40;99.90;;;;;;5052601;28;20170;-80
2023/03/29 03:55:09;;;;;;;3.63;2.40;;;4.40;99.90;;;;;;5051402;28;20267;-78
2023/03/29 03:57:36;;;;;;;2.50;2.07;;;4.40;99.90;;;;;;5052660;28;20177;-79
2023/03/29 04:00:17;;;;;;;3.27;2.03;;;4.40;99.90;;;;;;5050936;28;20288;-78
2023/03/29 04:02:44;;;;;;;2.47;1.87;;;4.50;99.90;;;;;;5052555;28;20203;-78
2023/03/29 04:05:10;;;;;;;4.93;2.37;;;4.50;99.90;;;;;;5049651;28;20221;-78
2023/03/29 04:07:35;;;;;;;2.97;2.20;;;4.50;99.90;;;;;;5052419;28;20197;-78
2023/03/29 04:10:01;;;;;;;4.10;2.50;;;4.50;99.90;;;;;;5050541;28;20174;-78
2023/03/29 04:12:26;;;;;;;2.73;2.27;;;4.50;99.90;;;;;;5052678;28;20183;-78
2023/03/29 04:14:52;;;;;;;3.87;2.20;;;4.50;99.90;;;;;;5051262;28;20200;-78
2023/03/29 04:17:18;;;;;;;2.13;1.80;;;4.60;99.90;;;;;;5052309;28;20600;-78
2023/03/29 04:19:43;;;;;;;2.30;1.90;;;4.60;99.90;;;;;;5051621;28;20701;-78
2023/03/29 04:22:09;;;;;;;3.27;1.93;;;4.60;99.90;;;;;;5051126;28;20169;-78
2023/03/29 04:24:34;;;;;;;3.10;1.80;;;4.60;99.90;;;;;;5052310;28;20189;-78
2023/03/29 04:27:00;;;;;;;2.37;1.97;;;4.60;99.90;;;;;;5052037;28;20174;-79
2023/03/29 04:29:26;;;;;;;3.07;1.97;;;4.60;99.90;;;;;;5052449;28;20298;-78
2023/03/29 04:31:51;;;;;;;4.10;2.33;;;4.60;99.90;;;;;;5051812;28;20207;-78
2023/03/29 04:34:17;;;;;;;3.10;1.97;;;4.60;99.90;;;;;;5051945;28;20186;-78
2023/03/29 04:36:42;;;;;;;4.70;2.27;;;4.60;99.90;;;;;;5050711;28;20278;-78
2023/03/29 04:39:08;;;;;;;2.70;2.10;;;4.60;99.90;;;;;;5050895;28;20202;-78
2023/03/29 04:41:34;;;;;;;3.23;2.03;;;4.60;99.90;;;;;;5050136;28;20170;-78
2023/03/29 04:44:01;;;;;;;4.20;2.10;;;4.60;99.90;;;;;;5050834;28;20660;-79
2023/03/29 04:46:27;;;;;;;3.07;2.40;;;4.60;99.90;;;;;;5051937;28;20173;-78
2023/03/29 04:48:52;;;;;;;3.53;2.10;;;4.60;99.90;;;;;;5050686;28;20248;-78
2023/03/29 04:51:21;;;;;;;2.73;2.10;;;4.60;99.90;;;;;;5051128;28;20219;-78
2023/03/29 04:53:49;;;;;;;4.13;2.30;;;4.60;99.90;;;;;;5051713;28;20490;-78
2023/03/29 04:56:15;;;;;;;4.70;2.30;;;4.60;99.90;;;;;;5051952;28;20201;-78
2023/03/29 04:58:41;;;;;;;3.20;2.10;;;4.70;99.90;;;;;;5051672;28;20198;-79
2023/03/29 05:01:06;;;;;;;3.90;1.90;;;4.70;99.90;;;;;;5050053;28;20230;-79
2023/03/29 05:03:33;;;;;;;2.93;2.20;;;4.60;99.90;;;;;;5050544;28;20189;-78
2023/03/29 05:06:05;;;;;;;2.87;2.00;;;4.60;99.90;;;;;;5051749;28;20162;-77
2023/03/29 05:08:38;;;;;;;2.73;2.03;;;4.60;99.90;;;;;;5053274;28;20228;-83
2023/03/29 05:11:06;;;;;;;3.77;1.97;;;4.60;99.90;;;;;;5053637;28;20262;-84
2023/03/29 05:13:32;;;;;;;2.93;2.07;;;4.60;99.90;;;;;;5055180;28;20197;-84
2023/03/29 05:15:59;;;;;;;3.07;2.00;;;4.60;99.90;;;;;;5053843;28;20180;-84
2023/03/29 05:18:25;;;;;;;3.73;2.17;;;4.70;99.90;;;;;;5053943;28;20204;-84
2023/03/29 05:20:52;;;;;;;3.23;2.10;;;4.70;99.90;;;;;;5055502;28;20170;-83
2023/03/29 05:23:19;;;;;;;4.23;2.20;;;4.70;99.90;;;;;;5056812;28;20162;-86
2023/03/29 05:25:47;;;;;;;2.63;2.00;;;4.70;99.90;;;;;;5053538;28;20200;-86
2023/03/29 05:28:13;;;;;;;3.87;2.40;;;4.70;99.90;;;;;;5052608;28;20186;-85
2023/03/29 05:30:39;;;;;;;2.87;2.17;;;4.70;99.90;;;;;;5051349;28;20280;-85
2023/03/29 05:33:05;;;;;;;2.27;2.07;;;4.70;99.90;;;;;;5051033;28;20205;-85
2023/03/29 05:35:31;;;;;;;4.63;2.10;;;4.70;99.90;;;;;;5053353;28;20173;-80
2023/03/29 05:37:57;;;;;;;2.97;2.30;;;4.70;99.90;;;;;;5055580;28;20209;-83
2023/03/29 05:40:25;;;;;;;3.17;2.50;;;4.70;99.90;;;;;;5056383;28;20205;-83
2023/03/29 05:42:51;;;;;;;5.50;2.40;;;4.80;99.90;;;;;;5056124;28;20224;-82
2023/03/29 05:45:18;;;;;;;4.53;2.40;;;4.80;99.90;;;;;;5057929;28;20205;-82
2023/03/29 05:47:43;;;;;;;4.90;2.10;;;4.80;99.90;;;;;;5057131;28;20166;-79
2023/03/29 05:50:10;;;;;;;3.30;2.20;;;4.80;99.90;;;;;;5055300;28;20170;-81
2023/03/29 05:52:36;;;;;;;3.50;2.40;;;4.80;99.90;;;;;;5058911;28;20206;-81
2023/03/29 05:55:03;;;;;;;4.87;3.13;;;4.80;99.90;;;;;;5057046;28;20593;-80
2023/03/29 05:57:28;;;;;;;5.73;3.93;;;4.80;99.90;;;;;;5052138;28;20166;-81
2023/03/29 05:59:55;;;;;;;5.70;3.30;;;4.90;99.90;;;;;;5050234;28;20201;-80
2023/03/29 06:02:21;;;;;;;69.83;24.23;;;4.90;99.90;;;;;;5053094;28;20714;-80
2023/03/29 06:04:47;;;;;;;64.40;22.60;;;5.00;99.90;;;;;;5054304;28;20284;-80
2023/03/29 06:07:13;;;;;;;62.30;20.80;;;5.00;99.90;;;;;;5054569;28;20308;-82
2023/03/29 06:09:39;;;;;;;18.27;9.17;;;5.00;99.90;;;;;;5055372;28;20639;-82
2023/03/29 06:12:05;;;;;;;7.40;4.30;;;5.00;99.90;;;;;;5055348;28;20173;-83
2023/03/29 06:14:31;;;;;;;5.50;3.40;;;5.10;99.90;;;;;;5054192;28;20204;-83
2023/03/29 06:16:57;;;;;;;4.17;3.17;;;5.10;99.90;;;;;;5055654;28;20555;-83
2023/03/29 06:19:23;;;;;;;3.83;2.70;;;5.10;99.90;;;;;;5056004;28;20280;-82
2023/03/29 06:21:51;;;;;;;4.17;3.10;;;5.20;99.90;;;;;;5054025;28;20447;-83
2023/03/29 06:24:16;;;;;;;5.63;3.00;;;5.20;99.90;;;;;;5054030;28;20601;-83
2023/03/29 06:26:42;;;;;;;5.17;3.07;;;5.30;99.90;;;;;;5054367;28;20647;-82
2023/03/29 06:29:09;;;;;;;5.70;3.80;;;5.30;99.90;;;;;;5054424;28;20545;-82
2023/03/29 06:31:35;;;;;;;7.03;3.87;;;5.40;99.90;;;;;;5053835;28;20178;-83
2023/03/29 06:34:01;;;;;;;4.50;3.10;;;5.40;99.90;;;;;;5053941;28;20585;-83
2023/03/29 06:36:27;;;;;;;7.50;3.87;;;5.50;99.90;;;;;;5055476;28;20186;-83
2023/03/29 06:38:52;;;;;;;7.27;4.67;;;5.60;99.90;;;;;;5054214;28;20193;-83
2023/03/29 06:41:18;;;;;;;4.77;3.30;;;5.60;99.90;;;;;;5053236;28;20165;-83
2023/03/29 06:43:44;;;;;;;8.03;4.83;;;5.70;99.90;;;;;;5053915;28;20674;-83
2023/03/29 06:46:10;;;;;;;6.70;4.03;;;5.70;99.90;;;;;;5053810;28;20170;-83
2023/03/29 06:48:37;;;;;;;9.60;6.17;;;5.80;99.90;;;;;;5053880;28;20173;-83
2023/03/29 06:51:03;;;;;;;6.50;3.60;;;5.80;99.90;;;;;;5053426;28;20185;-83
2023/03/29 06:53:29;;;;;;;7.20;4.93;;;5.80;99.90;;;;;;5055676;28;20201;-82
2023/03/29 06:55:55;;;;;;;7.97;4.57;;;5.90;99.90;;;;;;5053869;28;20173;-83
2023/03/29 06:58:20;;;;;;;7.37;4.60;;;5.90;99.90;;;;;;5054677;28;20174;-83
2023/03/29 07:00:47;;;;;;;6.10;3.37;;;5.90;99.90;;;;;;5051485;28;20181;-83
2023/03/29 07:03:19;;;;;;;10.50;5.70;;;6.00;99.90;;;;;;5053472;28;20170;-83
2023/03/29 07:05:46;;;;;;;7.97;3.87;;;6.00;99.90;;;;;;5054099;28;20642;-82
2023/03/29 07:08:14;;;;;;;7.37;3.60;;;6.00;99.90;;;;;;5055687;28;20171;-83
2023/03/29 07:10:46;;;;;;;5.73;3.83;;;6.00;99.90;;;;;;5054840;28;20221;-83
2023/03/29 07:13:12;;;;;;;6.90;3.63;;;6.10;99.90;;;;;;5054215;28;20174;-83
2023/03/29 07:15:40;;;;;;;8.10;4.30;;;6.10;99.90;;;;;;5056018;28;20175;-84
2023/03/29 07:18:07;;;;;;;4.80;2.90;;;6.20;99.90;;;;;;5055229;28;20225;-83
2023/03/29 07:20:33;;;;;;;6.80;3.43;;;6.20;99.90;;;;;;5053745;28;20197;-83
2023/03/29 07:22:59;;;;;;;10.13;5.23;;;6.20;99.90;;;;;;5054023;28;20171;-82
2023/03/29 07:25:26;;;;;;;5.93;3.17;;;6.30;99.90;;;;;;5055684;28;20172;-83
2023/03/29 07:27:52;;;;;;;7.67;4.13;;;6.30;99.90;;;;;;5054363;28;20641;-82
2023/03/29 07:30:21;;;;;;;5.97;3.70;;;6.30;99.90;;;;;;5053773;28;20199;-83
2023/03/29 07:32:49;;;;;;;5.47;3.53;;;6.40;99.90;;;;;;5055422;28;20184;-83
2023/03/29 07:35:16;;;;;;;4.80;3.07;;;6.40;99.90;;;;;;5054138;28;20206;-83
2023/03/29 07:37:43;;;;;;;4.10;3.00;;;6.50;99.90;;;;;;5056562;28;20189;-83
2023/03/29 07:40:22;;;;;;;6.53;2.70;;;6.50;99.90;;;;;;5055748;28;20755;-83
2023/03/29 07:42:52;;;;;;;5.10;2.53;;;6.60;99.90;;;;;;5054856;28;20176;-82
2023/03/29 07:45:19;;;;;;;5.17;2.20;;;6.90;99.90;;;;;;5054188;28;20199;-83
2023/03/29 07:47:48;;;;;;;5.03;3.10;;;7.00;99.90;;;;;;5055767;28;20172;-83
2023/03/29 07:50:15;;;;;;;4.77;2.40;;;7.00;99.90;;;;;;5055164;28;20677;-82
2023/03/29 07:52:42;;;;;;;4.23;2.63;;;7.00;99.90;;;;;;5056168;28;20645;-83
2023/03/29 07:55:10;;;;;;;4.50;2.57;;;7.00;99.90;;;;;;5055912;28;20227;-82
2023/03/29 07:57:35;;;;;;;3.87;2.40;;;7.10;99.90;;;;;;5055099;28;20184;-84
2023/03/29 08:00:14;;;;;;;3.90;2.40;;;7.10;99.90;;;;;;5056028;28;20200;-83
2023/03/29 08:02:44;;;;;;;4.00;2.37;;;7.30;99.90;;;;;;5054552;28;20179;-82
2023/03/29 08:05:11;;;;;;;3.40;2.23;;;7.40;99.90;;;;;;5055980;28;20200;-83
2023/03/29 08:07:38;;;;;;;2.97;2.33;;;7.50;99.90;;;;;;5055935;28;20176;-84
2023/03/29 08:10:05;;;;;;;3.47;2.27;;;7.70;99.90;;;;;;5057059;28;20631;-83
2023/03/29 08:12:31;;;;;;;4.20;2.73;;;7.70;99.90;;;;;;5055230;28;20172;-83
2023/03/29 08:14:56;;;;;;;2.80;2.30;;;7.80;99.90;;;;;;5055523;28;20363;-83
2023/03/29 08:17:22;;;;;;;2.90;2.47;;;7.80;99.90;;;;;;5055260;28;20648;-83
2023/03/29 08:19:48;;;;;;;4.03;2.70;;;7.80;99.90;;;;;;5055354;28;20205;-83
2023/03/29 08:22:14;;;;;;;3.03;2.17;;;8.00;99.90;;;;;;5057521;28;20183;-83
2023/03/29 08:24:40;;;;;;;3.40;2.10;;;7.90;99.90;;;;;;5056736;28;20193;-82
2023/03/29 08:27:05;;;;;;;3.70;2.40;;;7.80;99.90;;;;;;5057843;28;20176;-82
2023/03/29 08:29:31;;;;;;;5.90;2.60;;;7.90;99.90;;;;;;5056403;28;20177;-82
2023/03/29 08:31:57;;;;;;;3.33;2.30;;;7.90;99.90;;;;;;5058018;28;20250;-83
2023/03/29 08:34:22;;;;;;;2.87;2.13;;;7.80;99.90;;;;;;5057887;28;20228;-83
2023/03/29 08:36:48;;;;;;;3.67;2.47;;;7.90;99.90;;;;;;5041969;28;20657;-82
2023/03/29 08:39:13;;;;;;;2.80;2.20;;;7.80;99.90;;;;;;5058054;28;20189;-82
2023/03/29 08:42:10;;;;;;;2.83;2.53;;;7.70;99.90;;;;;;5056198;28;20177;-83
2023/03/29 08:44:48;;;;;;;3.97;2.33;;;7.80;99.90;;;;;;5058388;28;20232;-82
2023/03/29 08:47:28;;;;;;;3.03;2.20;;;7.80;99.90;;;;;;5060147;28;20170;-82
2023/03/29 08:49:55;;;;;;;3.53;2.33;;;7.90;99.90;;;;;;5061009;28;20177;-82
2023/03/29 08:52:35;;;;;;;5.30;2.87;;;7.90;99.90;;;;;;5051345;28;20182;-81
2023/03/29 08:55:05;;;;;;;3.17;2.30;;;8.20;99.90;;;;;;5052437;28;20219;-81
2023/03/29 08:57:36;;;;;;;4.10;2.57;;;8.30;99.90;;;;;;5052421;28;20182;-81
2023/03/29 09:00:05;;;;;;;4.27;2.33;;;8.50;99.90;;;;;;5051783;28;20251;-80
2023/03/29 09:02:34;;;;;;;4.47;2.50;;;8.60;99.90;;;;;;5051246;28;20173;-80
2023/03/29 09:05:19;;;;;;;4.00;2.37;;;9.20;99.90;;;;;;5052521;28;20583;-81
2023/03/29 09:07:45;;;;;;;2.50;2.17;;;9.10;99.90;;;;;;5052893;28;20174;-81
2023/03/29 09:10:15;;;;;;;3.90;2.40;;;8.90;99.90;;;;;;5050603;28;20182;-81
2023/03/29 09:12:43;;;;;;;3.23;2.20;;;8.80;99.90;;;;;;5051491;28;20269;-80
2023/03/29 09:15:23;;;;;;;3.67;2.40;;;8.50;99.90;;;;;;5051033;28;20256;-82
2023/03/29 09:18:11;;;;;;;4.53;2.57;;;8.40;99.90;;;;;;5052494;28;20197;-82
2023/03/29 09:20:52;;;;;;;3.00;2.50;;;8.50;99.90;;;;;;5041393;28;20222;-82
2023/03/29 09:23:27;;;;;;;2.63;2.20;;;8.50;99.90;;;;;;5051487;28;20572;-82
2023/03/29 09:26:21;;;;;;;3.70;2.20;;;8.50;99.90;;;;;;5052565;28;20190;-81
2023/03/29 09:28:46;;;;;;;3.63;2.70;;;8.50;99.90;;;;;;5051050;28;20177;-82
2023/03/29 09:31:21;;;;;;;3.23;2.43;;;8.50;99.90;;;;;;5050489;28;20174;-82
2023/03/29 09:34:09;;;;;;;3.50;2.20;;;8.50;99.90;;;;;;5052518;28;20205;-82
2023/03/29 09:36:44;;;;;;;2.50;2.13;;;8.50;99.90;;;;;;5051116;28;20228;-82
2023/03/29 09:39:13;;;;;;;2.57;2.33;;;8.50;99.90;;;;;;5054956;28;20683;-81
2023/03/29 09:41:45;;;;;;;3.63;2.37;;;8.50;99.90;;;;;;5055154;28;20668;-82
2023/03/29 09:44:24;;;;;;;3.13;2.27;;;8.50;99.90;;;;;;5054896;28;20248;-81
2023/03/29 09:47:05;;;;;;;2.73;2.27;;;8.50;99.90;;;;;;5055283;28;20267;-82
2023/03/29 09:49:37;;;;;;;3.50;2.33;;;8.60;99.90;;;;;;5056417;28;20181;-79
2023/03/29 09:52:11;;;;;;;2.43;2.17;;;8.60;99.90;;;;;;5055105;28;20178;-79
2023/03/29 09:54:37;;;;;;;3.90;2.40;;;8.60;99.90;;;;;;5054886;28;20274;-80
2023/03/29 09:57:03;;;;;;;2.83;2.30;;;8.60;99.90;;;;;;5054653;28;20596;-82
2023/03/29 09:59:29;;;;;;;3.80;2.37;;;8.70;99.90;;;;;;5056155;28;20193;-82
2023/03/29 10:02:06;;;;;;;3.63;2.40;;;8.60;99.90;;;;;;5056031;28;20572;-83
2023/03/29 10:04:31;;;;;;;3.47;2.10;;;8.60;99.90;;;;;;5054535;28;20463;-82
2023/03/29 10:06:58;;;;;;;3.43;2.47;;;8.60;99.90;;;;;;5054540;28;20166;-82
2023/03/29 10:09:25;;;;;;;3.83;2.33;;;8.70;99.90;;;;;;5056277;28;20170;-82
2023/03/29 10:11:55;;;;;;;4.00;2.33;;;8.70;99.90;;;;;;5055660;28;20179;-82
2023/03/29 10:14:37;;;;;;;3.00;2.30;;;8.70;99.90;;;;;;5053939;28;20599;-83
2023/03/29 10:17:22;;;;;;;3.57;2.57;;;8.90;99.90;;;;;;5056220;28;20715;-82
2023/03/29 10:19:51;;;;;;;4.07;2.50;;;9.00;99.90;;;;;;5054474;28;20222;-82
2023/03/29 10:22:21;;;;;;;3.90;2.47;;;9.10;99.90;;;;;;5054766;28;20262;-83
2023/03/29 10:24:52;;;;;;;3.40;2.40;;;9.20;99.90;;;;;;5056642;28;20207;-83
2023/03/29 10:27:25;;;;;;;3.10;2.17;;;9.30;99.90;;;;;;5057131;28;20554;-82
2023/03/29 10:29:52;;;;;;;3.67;2.40;;;9.30;99.90;;;;;;5054737;28;20676;-81
2023/03/29 10:32:24;;;;;;;3.27;2.27;;;9.20;99.90;;;;;;5055257;28;20206;-82
2023/03/29 10:34:50;;;;;;;3.03;2.03;;;9.30;99.90;;;;;;5054893;28;20216;-82
2023/03/29 10:37:18;;;;;;;3.00;2.00;;;9.20;99.90;;;;;;5056405;28;20177;-82
2023/03/29 10:39:45;;;;;;;2.20;2.00;;;9.30;99.90;;;;;;5056437;28;20195;-82
2023/03/29 10:42:14;;;;;;;3.70;2.60;;;9.30;99.90;;;;;;5055066;28;20204;-83
2023/03/29 10:44:40;;;;;;;2.50;2.13;;;9.40;99.90;;;;;;5057498;28;20198;-83
2023/03/29 10:47:16;;;;;;;2.90;2.00;;;9.60;99.90;;;;;;5057060;28;20631;-83
2023/03/29 10:49:45;;;;;;;3.40;2.20;;;9.70;99.90;;;;;;5055127;28;20180;-83
2023/03/29 10:52:13;;;;;;;3.40;2.20;;;9.80;99.90;;;;;;5056605;28;20241;-83
2023/03/29 10:54:38;;;;;;;2.70;2.00;;;9.80;99.90;;;;;;5057231;28;20208;-82
2023/03/29 10:57:09;;;;;;;3.60;2.40;;;9.80;99.90;;;;;;5057026;28;20189;-83
2023/03/29 11:00:08;;;;;;;2.70;2.30;;;9.80;99.90;;;;;;5057578;28;20573;-83
2023/03/29 11:02:46;;;;;;;3.50;2.40;;;9.80;99.90;;;;;;5056279;28;20185;-82
2023/03/29 11:05:33;;;;;;;3.43;2.70;;;9.80;99.90;;;;;;5057353;28;20199;-83
2023/03/29 11:08:22;;;;;;;3.03;2.27;;;9.90;99.90;;;;;;5057855;28;20181;-83
2023/03/29 11:11:13;;;;;;;7.70;4.10;;;9.90;99.90;;;;;;5058048;28;20174;-83
2023/03/29 11:13:59;;;;;;;7.90;5.13;;;10.00;99.90;;;;;;5018171;28;20277;-84
2023/03/29 11:16:40;;;;;;;4.13;3.50;;;10.20;99.90;;;;;;5062817;28;20189;-83
2023/03/29 11:19:19;;;;;;;6.00;3.70;;;10.80;99.90;;;;;;5060864;28;20197;-83
2023/03/29 11:22:05;;;;;;;4.03;2.70;;;10.80;99.90;;;;;;5061480;28;20191;-83
2023/03/29 11:24:40;;;;;;;3.97;2.83;;;10.60;99.90;;;;;;5060970;28;20192;-83
2023/03/29 11:27:37;;;;;;;4.17;2.63;;;10.60;99.90;;;;;;5060024;28;20267;-82
2023/03/29 11:30:18;;;;;;;4.33;3.10;;;10.70;99.90;;;;;;5057026;28;20234;-82
2023/03/29 11:33:03;;;;;;;4.20;2.90;;;10.60;99.90;;;;;;5057703;28;20229;-82
2023/03/29 11:35:37;;;;;;;4.83;2.70;;;10.40;99.90;;;;;;5058108;28;20177;-81
2023/03/29 11:38:21;;;;;;;4.43;3.00;;;10.50;99.90;;;;;;5059531;28;20172;-81
2023/03/29 11:41:27;;;;;;;3.63;3.03;;;10.50;99.90;;;;;;5058467;28;20177;-81
2023/03/29 11:43:56;;;;;;;3.90;3.23;;;10.70;99.90;;;;;;5059427;28;20570;-80
2023/03/29 11:46:34;;;;;;;4.13;2.63;;;10.80;99.90;;;;;;5062411;28;20170;-82
2023/03/29 11:49:26;;;;;;;3.30;2.40;;;10.80;99.90;;;;;;5054181;28;20538;-80
2023/03/29 11:52:01;;;;;;;3.43;2.60;;;10.70;99.90;;;;;;5052265;28;20182;-81
2023/03/29 11:54:39;;;;;;;3.43;2.33;;;10.80;99.90;;;;;;5052346;28;20205;-82
2023/03/29 11:57:34;;;;;;;2.77;2.27;;;10.90;99.90;;;;;;5053321;28;20213;-81
2023/03/29 12:00:06;;;;;;;3.47;2.60;;;10.90;99.90;;;;;;4999121;28;20241;-82
2023/03/29 12:02:35;;;;;;;5.30;2.50;;;10.90;99.90;;;;;;5054493;28;20228;-83
2023/03/29 12:05:10;;;;;;;4.17;2.20;;;11.00;99.90;;;;;;5053238;28;20201;-83
2023/03/29 12:08:00;;;;;;;3.27;2.43;;;11.10;99.90;;;;;;5052728;28;20166;-82
2023/03/29 12:10:37;;;;;;;2.80;2.40;;;11.30;99.90;;;;;;5051755;28;20174;-81
2023/03/29 12:13:18;;;;;;;4.23;2.47;;;11.30;99.90;;;;;;5053374;28;20184;-82
2023/03/29 12:15:56;;;;;;;3.40;2.30;;;11.30;99.90;;;;;;5052547;28;20168;-82
2023/03/29 12:18:41;;;;;;;3.13;2.00;;;11.30;99.90;;;;;;5052719;28;20170;-81
2023/03/29 12:21:12;;;;;;;4.57;2.00;;;11.40;99.90;;;;;;5051920;28;20212;-82
2023/03/29 12:23:40;;;;;;;3.37;2.10;;;11.50;99.90;;;;;;5052893;28;20193;-82
2023/03/29 12:26:20;;;;;;;6.83;4.80;;;11.50;99.90;;;;;;5054194;28;20174;-80
2023/03/29 12:29:12;;;;;;;4.10;2.90;;;11.60;99.90;;;;;;5054123;28;20200;-82
2023/03/29 12:31:47;;;;;;;2.97;2.20;;;11.60;99.90;;;;;;5052254;28;20161;-83
2023/03/29 12:34:35;;;;;;;2.97;2.00;;;11.60;99.90;;;;;;5054114;28;20599;-83
2023/03/29 12:37:16;;;;;;;3.80;2.23;;;11.60;99.90;;;;;;5053488;28;20149;-81
2023/03/29 12:39:41;;;;;;;3.47;2.30;;;11.60;99.90;;;;;;5053015;28;20204;-81
2023/03/29 12:42:42;;;;;;;2.67;1.77;;;11.60;99.90;;;;;;5054519;28;20522;-82
2023/03/29 12:45:20;;;;;;;3.03;1.83;;;11.80;99.90;;;;;;5057126;28;20190;-81
2023/03/29 12:47:49;;;;;;;2.60;1.97;;;11.80;99.90;;;;;;5052964;28;20158;-82
2023/03/29 12:50:35;;;;;;;2.83;1.90;;;11.80;99.90;;;;;;5051705;28;20181;-81
2023/03/29 12:53:23;;;;;;;2.10;1.90;;;11.80;99.90;;;;;;5054570;28;20161;-81
2023/03/29 12:56:02;;;;;;;3.93;1.57;;;11.90;99.90;;;;;;5054378;28;20599;-83
2023/03/29 12:58:51;;;;;;;2.00;1.50;;;11.90;99.90;;;;;;5052817;28;20173;-81
2023/03/29 13:01:33;;;;;;;2.03;1.80;;;12.00;99.90;;;;;;5052549;28;20625;-80
2023/03/29 13:03:58;;;;;;;2.87;2.03;;;12.10;99.90;;;;;;5052515;28;20191;-83
2023/03/29 13:06:50;;;;;;;2.03;1.70;;;12.30;99.90;;;;;;5052580;28;20176;-82
2023/03/29 13:09:23;;;;;;;2.67;1.83;;;12.60;99.90;;;;;;5052709;28;20193;-82
2023/03/29 13:12:15;;;;;;;2.87;1.77;;;12.90;99.90;;;;;;5055703;28;20187;-82
2023/03/29 13:14:49;;;;;;;2.80;2.10;;;12.80;99.90;;;;;;5047442;28;20201;-82
2023/03/29 13:17:26;;;;;;;2.33;2.00;;;12.60;99.90;;;;;;5057095;28;20181;-82